createdAt,value
2018-09-27T00:00:16.553Z,0.00
2018-09-27T00:01:16.541Z,0.00
2018-09-27T00:02:16.539Z,0.00
2018-09-27T00:03:16.536Z,0.00
2018-09-27T00:04:16.534Z,0.00
2018-09-27T00:05:16.530Z,0.00
2018-09-27T00:06:16.535Z,0.00
2018-09-27T00:07:16.523Z,0.00
2018-09-27T00:08:16.522Z,0.00
2018-09-27T00:09:16.519Z,0.00
2018-09-27T00:10:16.516Z,0.00
2018-09-27T00:11:16.514Z,0.00
2018-09-27T00:12:16.510Z,0.00
2018-09-27T00:13:16.509Z,0.00
2018-09-27T00:14:16.506Z,0.00
2018-09-27T00:15:16.504Z,0.00
2018-09-27T00:16:16.497Z,0.00
2018-09-27T00:17:16.497Z,0.00
2018-09-27T00:18:16.495Z,0.00
2018-09-27T00:19:16.492Z,0.00
2018-09-27T00:20:16.493Z,0.00
2018-09-27T00:21:16.488Z,0.00
2018-09-27T00:22:16.485Z,0.00
2018-09-27T00:23:16.492Z,0.00
2018-09-27T00:24:16.483Z,0.00
2018-09-27T00:25:16.476Z,0.00
2018-09-27T00:26:16.475Z,0.00
2018-09-27T00:27:16.473Z,0.00
2018-09-27T00:28:16.469Z,0.00
2018-09-27T00:29:16.466Z,0.00
2018-09-27T00:30:16.465Z,0.00
2018-09-27T00:31:16.462Z,0.00
2018-09-27T00:32:16.459Z,0.00
2018-09-27T00:33:16.458Z,0.00
2018-09-27T00:34:16.455Z,0.00
2018-09-27T00:35:16.487Z,0.00
2018-09-27T00:36:16.448Z,0.00
2018-09-27T00:37:16.553Z,0.00
2018-09-27T00:38:16.444Z,0.00
2018-09-27T00:39:16.443Z,0.00
2018-09-27T00:40:16.443Z,0.00
2018-09-27T00:41:16.436Z,0.00
2018-09-27T00:42:16.434Z,0.00
2018-09-27T00:43:16.432Z,0.00
2018-09-27T00:44:16.449Z,0.00
2018-09-27T00:45:16.429Z,0.00
2018-09-27T00:46:16.424Z,0.00
2018-09-27T00:47:16.419Z,0.00
2018-09-27T00:48:16.420Z,0.00
2018-09-27T00:49:16.414Z,0.00
2018-09-27T00:50:16.414Z,0.00
2018-09-27T00:51:16.427Z,0.00
2018-09-27T00:52:16.411Z,0.00
2018-09-27T00:53:16.411Z,0.00
2018-09-27T00:54:16.404Z,0.00
2018-09-27T00:55:16.402Z,0.00
2018-09-27T00:56:16.397Z,0.00
2018-09-27T00:57:16.395Z,0.00
2018-09-27T00:58:16.393Z,0.00
2018-09-27T00:59:16.391Z,0.00
2018-09-27T01:00:16.389Z,0.00
2018-09-27T01:01:16.391Z,0.00
2018-09-27T01:02:16.389Z,0.00
2018-09-27T01:03:16.386Z,0.00
2018-09-27T01:04:16.379Z,0.00
2018-09-27T01:05:16.388Z,0.00
2018-09-27T01:06:16.395Z,0.00
2018-09-27T01:07:16.375Z,0.00
2018-09-27T01:08:16.371Z,0.00
2018-09-27T01:09:16.366Z,0.00
2018-09-27T01:10:16.373Z,0.00
2018-09-27T01:11:16.362Z,0.00
2018-09-27T01:12:16.363Z,0.00
2018-09-27T01:13:16.358Z,0.00
2018-09-27T01:14:16.355Z,0.00
2018-09-27T01:15:16.362Z,0.00
2018-09-27T01:16:16.353Z,0.00
2018-09-27T01:17:16.350Z,0.00
2018-09-27T01:18:16.348Z,0.00
2018-09-27T01:19:16.362Z,0.00
2018-09-27T01:20:16.352Z,0.00
2018-09-27T01:21:16.339Z,0.00
2018-09-27T01:22:16.335Z,0.00
2018-09-27T01:23:16.334Z,0.00
2018-09-27T01:24:16.330Z,0.00
2018-09-27T01:25:16.329Z,0.00
2018-09-27T01:26:16.325Z,0.00
2018-09-27T01:27:16.323Z,0.00
2018-09-27T01:28:16.321Z,0.00
2018-09-27T01:29:16.317Z,0.00
2018-09-27T01:30:16.330Z,0.00
2018-09-27T01:31:16.313Z,0.00
2018-09-27T01:32:16.308Z,0.00
2018-09-27T01:33:16.307Z,0.00
2018-09-27T01:34:16.304Z,0.00
2018-09-27T01:35:16.299Z,0.00
2018-09-27T01:36:16.297Z,0.00
2018-09-27T01:37:16.308Z,0.00
2018-09-27T01:38:16.300Z,0.00
2018-09-27T01:39:16.297Z,0.00
2018-09-27T01:40:16.289Z,0.00
2018-09-27T01:41:16.321Z,0.00
2018-09-27T01:42:16.300Z,0.00
2018-09-27T01:43:16.285Z,0.00
2018-09-27T01:44:16.278Z,0.00
2018-09-27T01:45:16.274Z,0.00
2018-09-27T01:46:16.272Z,0.00
2018-09-27T01:47:16.271Z,0.00
2018-09-27T01:48:16.275Z,0.00
2018-09-27T01:49:16.264Z,0.00
2018-09-27T01:50:16.260Z,0.00
2018-09-27T01:51:16.260Z,0.00
2018-09-27T01:52:16.255Z,0.00
2018-09-27T01:53:16.279Z,0.00
2018-09-27T01:54:16.251Z,0.00
2018-09-27T01:55:16.248Z,0.00
2018-09-27T01:56:16.244Z,0.00
2018-09-27T01:57:16.251Z,0.00
2018-09-27T01:58:16.238Z,0.00
2018-09-27T01:59:16.236Z,0.00
2018-09-27T02:00:16.232Z,0.00
2018-09-27T02:01:16.229Z,0.00
2018-09-27T02:02:16.234Z,0.00
2018-09-27T02:03:16.225Z,0.00
2018-09-27T02:04:16.221Z,0.00
2018-09-27T02:05:16.221Z,0.00
2018-09-27T02:06:16.213Z,0.00
2018-09-27T02:07:16.211Z,0.00
2018-09-27T02:08:16.212Z,0.00
2018-09-27T02:09:16.204Z,0.00
2018-09-27T02:10:16.204Z,0.00
2018-09-27T02:11:16.202Z,0.00
2018-09-27T02:12:16.196Z,0.00
2018-09-27T02:13:16.198Z,0.00
2018-09-27T02:14:16.192Z,0.00
2018-09-27T02:15:16.189Z,0.00
2018-09-27T02:16:16.238Z,0.00
2018-09-27T02:17:16.179Z,0.00
2018-09-27T02:18:16.179Z,0.00
2018-09-27T02:19:16.196Z,0.00
2018-09-27T02:20:16.172Z,0.00
2018-09-27T02:21:16.169Z,0.00
2018-09-27T02:22:16.166Z,0.00
2018-09-27T02:23:16.161Z,0.00
2018-09-27T02:24:16.167Z,0.00
2018-09-27T02:25:16.153Z,0.00
2018-09-27T02:26:16.153Z,0.00
2018-09-27T02:27:16.150Z,0.00
2018-09-27T02:28:16.146Z,0.00
2018-09-27T02:29:16.144Z,0.00
2018-09-27T02:30:16.146Z,0.00
2018-09-27T02:31:16.134Z,0.00
2018-09-27T02:32:16.131Z,0.00
2018-09-27T02:33:16.127Z,0.00
2018-09-27T02:34:16.152Z,0.00
2018-09-27T02:35:16.122Z,0.00
2018-09-27T02:36:16.117Z,0.00
2018-09-27T02:37:16.117Z,0.00
2018-09-27T02:38:16.152Z,0.00
2018-09-27T02:39:16.110Z,0.00
2018-09-27T02:40:16.106Z,0.00
2018-09-27T02:41:16.100Z,0.00
2018-09-27T02:42:16.100Z,0.00
2018-09-27T02:43:16.095Z,0.00
2018-09-27T02:44:16.091Z,0.00
2018-09-27T02:45:16.088Z,0.00
2018-09-27T02:46:16.084Z,0.00
2018-09-27T02:47:16.082Z,0.00
2018-09-27T02:48:16.076Z,0.00
2018-09-27T02:49:16.089Z,0.00
2018-09-27T02:50:16.078Z,0.00
2018-09-27T02:51:16.077Z,0.00
2018-09-27T02:52:16.063Z,0.00
2018-09-27T02:53:16.057Z,0.00
2018-09-27T02:54:16.057Z,0.00
2018-09-27T02:55:16.054Z,0.00
2018-09-27T02:56:16.049Z,0.00
2018-09-27T02:57:16.045Z,0.00
2018-09-27T02:58:16.042Z,0.00
2018-09-27T02:59:16.040Z,0.00
2018-09-27T03:00:16.042Z,0.00
2018-09-27T03:01:16.031Z,0.00
2018-09-27T03:02:16.030Z,0.00
2018-09-27T03:03:16.026Z,0.00
2018-09-27T03:04:16.022Z,0.00
2018-09-27T03:05:16.024Z,0.00
2018-09-27T03:08:09.461Z,0.00
2018-09-27T03:08:48.170Z,0.00
2018-09-27T03:10:41.295Z,0.00
2018-09-27T03:11:40.996Z,0.00
2018-09-27T03:13:34.133Z,0.00
2018-09-27T03:14:33.895Z,0.00
2018-09-27T03:16:27.055Z,0.00
2018-09-27T03:17:26.692Z,0.00
2018-09-27T03:19:19.914Z,0.00
2018-09-27T03:20:19.558Z,0.00
2018-09-27T03:22:12.732Z,0.00
2018-09-27T03:23:20.882Z,0.00
2018-09-27T03:25:06.217Z,0.00
2018-09-27T03:26:06.144Z,0.00
2018-09-27T03:27:58.975Z,0.00
2018-09-27T03:28:59.065Z,0.00
2018-09-27T03:30:51.945Z,0.00
2018-09-27T03:31:51.588Z,0.00
2018-09-27T03:33:44.767Z,0.00
2018-09-27T03:34:44.582Z,0.00
2018-09-27T03:36:37.632Z,0.00
2018-09-27T03:37:37.291Z,0.00
2018-09-27T03:38:37.285Z,0.00
2018-09-27T03:39:37.440Z,0.00
2018-09-27T03:40:37.684Z,0.00
2018-09-27T03:41:37.250Z,0.00
2018-09-27T03:42:37.265Z,0.00
2018-09-27T03:43:37.242Z,0.00
2018-09-27T03:44:37.238Z,0.00
2018-09-27T03:45:37.246Z,0.00
2018-09-27T03:46:37.231Z,0.00
2018-09-27T03:47:37.229Z,0.00
2018-09-27T03:48:37.231Z,0.00
2018-09-27T03:49:37.220Z,0.00
2018-09-27T03:50:37.218Z,0.00
2018-09-27T03:51:37.212Z,0.00
2018-09-27T03:52:37.207Z,0.00
2018-09-27T03:53:37.205Z,0.00
2018-09-27T03:54:37.204Z,0.00
2018-09-27T03:55:37.205Z,0.00
2018-09-27T03:56:37.195Z,0.00
2018-09-27T03:57:37.201Z,0.00
2018-09-27T03:58:37.191Z,0.00
2018-09-27T03:59:37.196Z,0.00
2018-09-27T04:00:37.181Z,0.00
2018-09-27T04:01:37.176Z,0.00
2018-09-27T04:02:37.171Z,0.00
2018-09-27T04:03:37.169Z,0.00
2018-09-27T04:04:37.177Z,0.00
2018-09-27T04:05:37.160Z,0.00
2018-09-27T04:06:37.158Z,0.00
2018-09-27T04:07:37.598Z,0.00
2018-09-27T04:08:37.149Z,0.00
2018-09-27T04:09:37.145Z,0.00
2018-09-27T04:10:37.140Z,0.00
2018-09-27T04:11:37.139Z,0.00
2018-09-27T04:12:37.173Z,0.00
2018-09-27T04:13:37.133Z,0.00
2018-09-27T04:14:57.481Z,0.00
2018-09-27T04:15:56.200Z,0.00
2018-09-27T04:17:49.747Z,0.00
2018-09-27T04:18:50.972Z,0.00
2018-09-27T04:20:42.603Z,0.00
2018-09-27T04:21:42.424Z,0.00
2018-09-27T04:23:35.423Z,0.00
2018-09-27T04:24:36.777Z,0.00
2018-09-27T04:26:28.515Z,0.00
2018-09-27T04:27:28.370Z,0.00
2018-09-27T04:29:21.448Z,0.00
2018-09-27T04:30:21.339Z,0.00
2018-09-27T04:32:14.772Z,0.00
2018-09-27T04:33:15.072Z,0.00
2018-09-27T04:35:08.309Z,0.00
2018-09-27T04:36:08.050Z,0.00
2018-09-27T04:38:01.496Z,0.00
2018-09-27T04:39:08.819Z,0.00
2018-09-27T04:40:55.942Z,0.00
2018-09-27T04:41:58.383Z,0.00
2018-09-27T04:43:48.561Z,0.00
2018-09-27T04:44:55.492Z,4.00
2018-09-27T04:46:41.320Z,4.00
2018-09-27T04:47:41.060Z,4.00
2018-09-27T04:49:34.047Z,4.00
2018-09-27T04:50:33.828Z,4.00
2018-09-27T04:52:27.918Z,8.00
2018-09-27T04:53:27.884Z,8.00
2018-09-27T04:55:20.214Z,12.00
2018-09-27T04:56:19.566Z,12.00
2018-09-27T04:58:13.100Z,16.00
2018-09-27T04:59:13.489Z,20.00
2018-09-27T05:01:06.464Z,24.00
2018-09-27T05:02:13.700Z,28.00
2018-09-27T05:03:59.770Z,36.00
2018-09-27T05:04:59.980Z,40.00
2018-09-27T05:06:53.252Z,48.00
2018-09-27T05:07:52.549Z,56.00
2018-09-27T05:09:45.850Z,68.00
2018-09-27T05:10:45.643Z,76.00
2018-09-27T05:12:38.832Z,84.00
2018-09-27T05:13:38.628Z,92.00
2018-09-27T05:15:32.339Z,108.00
2018-09-27T05:16:31.773Z,116.00
2018-09-27T05:18:24.499Z,132.00
2018-09-27T05:19:31.502Z,144.00
2018-09-27T05:21:17.729Z,160.00
2018-09-27T05:22:17.794Z,168.00
2018-09-27T05:24:11.070Z,184.00
2018-09-27T05:25:10.940Z,196.00
2018-09-27T05:27:04.054Z,212.00
2018-09-27T05:28:03.857Z,224.00
2018-09-27T05:29:56.796Z,248.00
2018-09-27T05:30:56.642Z,264.00
2018-09-27T05:32:49.737Z,296.00
2018-09-27T05:33:49.476Z,316.00
2018-09-27T05:35:42.530Z,356.00
2018-09-27T05:36:42.408Z,368.00
2018-09-27T05:37:42.316Z,384.00
2018-09-27T05:38:42.429Z,404.00
2018-09-27T05:39:42.326Z,424.00
2018-09-27T05:40:42.286Z,444.00
2018-09-27T05:41:42.289Z,460.00
2018-09-27T05:42:42.283Z,472.00
2018-09-27T05:43:42.282Z,488.00
2018-09-27T05:44:42.276Z,512.00
2018-09-27T05:45:42.327Z,528.00
2018-09-27T05:46:42.271Z,544.00
2018-09-27T05:47:42.270Z,552.00
2018-09-27T05:48:42.263Z,556.00
2018-09-27T05:49:42.259Z,556.00
2018-09-27T05:50:42.253Z,552.00
2018-09-27T05:51:42.344Z,540.00
2018-09-27T05:52:42.250Z,540.00
2018-09-27T05:53:42.245Z,544.00
2018-09-27T05:54:42.243Z,552.00
2018-09-27T05:55:42.268Z,556.00
2018-09-27T05:56:42.266Z,564.00
2018-09-27T05:57:42.320Z,572.00
2018-09-27T05:58:51.196Z,580.00
2018-09-27T06:00:35.371Z,588.00
2018-09-27T06:01:35.192Z,616.00
2018-09-27T06:03:28.395Z,636.00
2018-09-27T06:04:28.755Z,648.00
2018-09-27T06:06:20.903Z,660.00
2018-09-27T06:07:20.863Z,668.00
2018-09-27T06:09:13.846Z,680.00
2018-09-27T06:10:13.765Z,688.00
2018-09-27T06:11:16.313Z,692.00
2018-09-27T06:12:13.868Z,700.00
2018-09-27T06:13:13.726Z,700.00
2018-09-27T06:14:13.727Z,704.00
2018-09-27T06:15:13.731Z,704.00
2018-09-27T06:16:20.970Z,712.00
2018-09-27T06:18:07.173Z,728.00
2018-09-27T06:19:07.083Z,736.00
2018-09-27T06:20:07.092Z,748.00
2018-09-27T06:21:07.185Z,760.00
2018-09-27T06:22:07.060Z,768.00
2018-09-27T06:23:07.057Z,776.00
2018-09-27T06:24:07.057Z,784.00
2018-09-27T06:25:07.054Z,796.00
2018-09-27T06:26:07.079Z,804.00
2018-09-27T06:27:07.074Z,820.00
2018-09-27T06:28:07.044Z,840.00
2018-09-27T06:29:07.041Z,1660.00
2018-09-27T06:30:07.050Z,3860.00
2018-09-27T06:31:09.632Z,4696.00
2018-09-27T06:32:07.040Z,4824.00
2018-09-27T06:33:07.032Z,4928.00
2018-09-27T06:34:07.032Z,5060.00
2018-09-27T06:35:07.098Z,5184.00
2018-09-27T06:36:07.026Z,5304.00
2018-09-27T06:37:07.069Z,5428.00
2018-09-27T06:38:07.030Z,5564.00
2018-09-27T06:39:07.024Z,5684.00
2018-09-27T06:40:09.634Z,5804.00
2018-09-27T06:41:07.024Z,5920.00
2018-09-27T06:42:08.647Z,6040.00
2018-09-27T06:43:07.025Z,6156.00
2018-09-27T06:44:07.032Z,6292.00
2018-09-27T06:45:07.032Z,6400.00
2018-09-27T06:46:07.033Z,6508.00
2018-09-27T06:47:07.039Z,6576.00
2018-09-27T06:48:07.047Z,6704.00
2018-09-27T06:49:07.082Z,6804.00
2018-09-27T06:50:07.048Z,6872.00
2018-09-27T06:51:07.051Z,6960.00
2018-09-27T06:52:07.043Z,7016.00
2018-09-27T06:53:07.050Z,7088.00
2018-09-27T06:54:07.052Z,7180.00
2018-09-27T06:55:07.338Z,7232.00
2018-09-27T06:56:07.117Z,7272.00
2018-09-27T06:57:07.068Z,7336.00
2018-09-27T06:58:07.068Z,7360.00
2018-09-27T06:59:07.072Z,7376.00
2018-09-27T07:00:07.085Z,7436.00
2018-09-27T07:01:07.086Z,7480.00
2018-09-27T07:02:07.088Z,7548.00
2018-09-27T07:03:07.168Z,7632.00
2018-09-27T07:04:07.183Z,7716.00
2018-09-27T07:05:07.103Z,7812.00
2018-09-27T07:06:07.115Z,7844.00
2018-09-27T07:07:07.157Z,7904.00
2018-09-27T07:08:07.132Z,8004.00
2018-09-27T07:09:07.126Z,8084.00
2018-09-27T07:10:08.669Z,8252.00
2018-09-27T07:11:07.145Z,8456.00
2018-09-27T07:12:09.712Z,8560.00
2018-09-27T07:13:07.148Z,8812.00
2018-09-27T07:14:07.159Z,9020.00
2018-09-27T07:15:07.162Z,9360.00
2018-09-27T07:16:07.173Z,9564.00
2018-09-27T07:17:07.215Z,7548.00
2018-09-27T07:18:09.162Z,9596.00
2018-09-27T07:19:07.187Z,7084.00
2018-09-27T07:20:07.246Z,4972.00
2018-09-27T07:21:07.235Z,11252.00
2018-09-27T07:22:07.209Z,13888.00
2018-09-27T07:23:07.215Z,13108.00
2018-09-27T07:24:07.256Z,13328.00
2018-09-27T07:25:07.259Z,14656.00
2018-09-27T07:26:07.237Z,15552.00
2018-09-27T07:27:07.246Z,15424.00
2018-09-27T07:28:07.252Z,16064.00
2018-09-27T07:29:07.260Z,18048.00
2018-09-27T07:30:07.269Z,20096.00
2018-09-27T07:31:07.356Z,22112.00
2018-09-27T07:32:07.281Z,24288.00
2018-09-27T07:33:07.290Z,26272.00
2018-09-27T07:34:09.161Z,28480.00
2018-09-27T07:35:07.302Z,28032.00
2018-09-27T07:36:07.316Z,27584.00
2018-09-27T07:37:10.150Z,27296.00
2018-09-27T07:38:07.332Z,27296.00
2018-09-27T07:39:07.347Z,25600.00
2018-09-27T07:40:10.163Z,24224.00
2018-09-27T07:41:07.357Z,23488.00
2018-09-27T07:42:07.367Z,23296.00
2018-09-27T07:43:07.373Z,22784.00
2018-09-27T07:44:07.383Z,21120.00
2018-09-27T07:45:07.425Z,19680.00
2018-09-27T07:46:07.410Z,19776.00
2018-09-27T07:47:07.413Z,20640.00
2018-09-27T07:48:07.423Z,20480.00
2018-09-27T07:49:07.432Z,19808.00
2018-09-27T07:50:07.441Z,19104.00
2018-09-27T07:51:07.451Z,19520.00
2018-09-27T07:52:07.462Z,21984.00
2018-09-27T07:53:07.473Z,22976.00
2018-09-27T07:54:09.197Z,18656.00
2018-09-27T07:55:09.164Z,17536.00
2018-09-27T07:56:07.505Z,19488.00
2018-09-27T07:57:07.526Z,20032.00
2018-09-27T07:58:07.525Z,18752.00
2018-09-27T07:59:07.532Z,18912.00
2018-09-27T08:00:07.625Z,20864.00
2018-09-27T08:01:07.558Z,19744.00
2018-09-27T08:02:08.639Z,18272.00
2018-09-27T08:03:07.686Z,19840.00
2018-09-27T08:04:07.592Z,20896.00
2018-09-27T08:05:07.604Z,20800.00
2018-09-27T08:06:07.614Z,21248.00
2018-09-27T08:07:07.623Z,19840.00
2018-09-27T08:08:07.636Z,19264.00
2018-09-27T08:09:07.650Z,20128.00
2018-09-27T08:10:07.661Z,20256.00
2018-09-27T08:11:07.771Z,19360.00
2018-09-27T08:12:07.738Z,20064.00
2018-09-27T08:13:07.706Z,22400.00
2018-09-27T08:14:07.714Z,21888.00
2018-09-27T08:15:07.814Z,21824.00
2018-09-27T08:16:10.667Z,22976.00
2018-09-27T08:17:07.801Z,23264.00
2018-09-27T08:18:07.756Z,24128.00
2018-09-27T08:19:07.771Z,25728.00
2018-09-27T08:20:07.782Z,29152.00
2018-09-27T08:21:09.769Z,33376.00
2018-09-27T08:22:07.809Z,33440.00
2018-09-27T08:23:07.821Z,30880.00
2018-09-27T08:24:07.852Z,27296.00
2018-09-27T08:25:07.847Z,26688.00
2018-09-27T08:26:07.860Z,28576.00
2018-09-27T08:27:07.873Z,29632.00
2018-09-27T08:28:07.886Z,33664.00
2018-09-27T08:29:07.900Z,38976.00
2018-09-27T08:30:07.935Z,38208.00
2018-09-27T08:31:07.946Z,33312.00
2018-09-27T08:32:07.941Z,29760.00
2018-09-27T08:33:07.953Z,27616.00
2018-09-27T08:34:07.968Z,24480.00
2018-09-27T08:35:07.984Z,22656.00
2018-09-27T08:36:07.996Z,21888.00
2018-09-27T08:37:08.013Z,21632.00
2018-09-27T08:38:08.038Z,21120.00
2018-09-27T08:39:08.032Z,20896.00
2018-09-27T08:40:08.049Z,20832.00
2018-09-27T08:41:08.064Z,20672.00
2018-09-27T08:42:08.080Z,20736.00
2018-09-27T08:43:08.198Z,20768.00
2018-09-27T08:44:08.107Z,20832.00
2018-09-27T08:45:08.250Z,20896.00
2018-09-27T08:46:08.139Z,21152.00
2018-09-27T08:47:08.146Z,21312.00
2018-09-27T08:48:08.210Z,21440.00
2018-09-27T08:49:08.181Z,21376.00
2018-09-27T08:50:08.192Z,21408.00
2018-09-27T08:51:08.208Z,21408.00
2018-09-27T08:52:08.224Z,21280.00
2018-09-27T08:53:08.240Z,21280.00
2018-09-27T08:54:08.251Z,21344.00
2018-09-27T08:55:08.266Z,21248.00
2018-09-27T08:56:08.362Z,21120.00
2018-09-27T08:57:08.302Z,20960.00
2018-09-27T08:58:08.315Z,20736.00
2018-09-27T08:59:08.328Z,20416.00
2018-09-27T09:00:08.387Z,20064.00
2018-09-27T09:01:08.356Z,20128.00
2018-09-27T09:02:08.380Z,19904.00
2018-09-27T09:03:08.384Z,19584.00
2018-09-27T09:04:08.402Z,19488.00
2018-09-27T09:05:08.416Z,19360.00
2018-09-27T09:06:08.431Z,19424.00
2018-09-27T09:07:08.444Z,19296.00
2018-09-27T09:08:08.463Z,19328.00
2018-09-27T09:09:08.475Z,19904.00
2018-09-27T09:10:08.493Z,24960.00
2018-09-27T09:11:08.514Z,40736.00
2018-09-27T09:12:08.558Z,52256.00
2018-09-27T09:13:08.542Z,52416.00
2018-09-27T09:14:08.572Z,51712.00
2018-09-27T09:15:08.587Z,49664.00
2018-09-27T09:16:08.589Z,48992.00
2018-09-27T09:17:08.606Z,50592.00
2018-09-27T09:18:08.619Z,49888.00
2018-09-27T09:19:08.638Z,48192.00
2018-09-27T09:20:08.654Z,48096.00
2018-09-27T09:21:08.689Z,47200.00
2018-09-27T09:22:08.685Z,48032.00
2018-09-27T09:23:08.705Z,50304.00
2018-09-27T09:24:10.698Z,52064.00
2018-09-27T09:25:08.738Z,52416.00
2018-09-27T09:26:08.791Z,51232.00
2018-09-27T09:27:11.687Z,51040.00
2018-09-27T09:28:08.787Z,51616.00
2018-09-27T09:29:08.809Z,51136.00
2018-09-27T09:30:08.822Z,52384.00
2018-09-27T09:31:08.840Z,52576.00
2018-09-27T09:32:08.859Z,52256.00
2018-09-27T09:33:08.876Z,52608.00
2018-09-27T09:34:08.926Z,52160.00
2018-09-27T09:35:08.910Z,52064.00
2018-09-27T09:36:08.929Z,51584.00
2018-09-27T09:37:08.946Z,52288.00
2018-09-27T09:38:08.985Z,52608.00
2018-09-27T09:39:11.692Z,51200.00
2018-09-27T09:40:08.998Z,52576.00
2018-09-27T09:41:09.024Z,52672.00
2018-09-27T09:42:09.037Z,52704.00
2018-09-27T09:43:09.054Z,50400.00
2018-09-27T09:44:09.074Z,50816.00
2018-09-27T09:45:09.105Z,51488.00
2018-09-27T09:46:11.693Z,51232.00
2018-09-27T09:47:09.124Z,52672.00
2018-09-27T09:48:09.152Z,54080.00
2018-09-27T09:49:11.725Z,55424.00
2018-09-27T09:50:10.747Z,55456.00
2018-09-27T09:51:09.204Z,54592.00
2018-09-27T09:52:09.215Z,55424.00
2018-09-27T09:53:09.250Z,56576.00
2018-09-27T09:54:11.195Z,56448.00
2018-09-27T09:55:09.270Z,54688.00
2018-09-27T09:56:09.287Z,53152.00
2018-09-27T09:57:09.304Z,53344.00
2018-09-27T09:58:09.323Z,54144.00
2018-09-27T09:59:09.398Z,53856.00
2018-09-27T10:00:11.208Z,47680.00
2018-09-27T10:01:09.369Z,23328.00
2018-09-27T10:02:09.383Z,6784.00
2018-09-27T10:03:09.396Z,5116.00
2018-09-27T10:04:09.416Z,4152.00
2018-09-27T10:05:09.431Z,3532.00
2018-09-27T10:06:09.441Z,3104.00
2018-09-27T10:07:09.453Z,2908.00
2018-09-27T10:08:09.466Z,2852.00
2018-09-27T10:09:09.477Z,2844.00
2018-09-27T10:10:09.490Z,2836.00
2018-09-27T10:11:09.503Z,2832.00
2018-09-27T10:12:09.513Z,2824.00
2018-09-27T10:13:09.523Z,2816.00
2018-09-27T10:14:09.538Z,2816.00
2018-09-27T10:15:09.546Z,2808.00
2018-09-27T10:16:09.558Z,2800.00
2018-09-27T10:17:09.575Z,2800.00
2018-09-27T10:18:09.579Z,2792.00
2018-09-27T10:19:09.588Z,2780.00
2018-09-27T10:20:09.598Z,2776.00
2018-09-27T10:21:09.608Z,2772.00
2018-09-27T10:22:09.672Z,2760.00
2018-09-27T10:23:09.636Z,2756.00
2018-09-27T10:24:09.637Z,2748.00
2018-09-27T10:25:09.644Z,2744.00
2018-09-27T10:26:09.653Z,2736.00
2018-09-27T10:27:09.666Z,2728.00
2018-09-27T10:28:09.670Z,2724.00
2018-09-27T10:29:09.681Z,2712.00
2018-09-27T10:30:09.688Z,2712.00
2018-09-27T10:31:09.701Z,2704.00
2018-09-27T10:32:09.708Z,2696.00
2018-09-27T10:33:09.716Z,2668.00
2018-09-27T10:34:09.778Z,2680.00
2018-09-27T10:35:09.730Z,2672.00
2018-09-27T10:36:09.739Z,2668.00
2018-09-27T10:37:09.752Z,2660.00
2018-09-27T10:38:09.765Z,2652.00
2018-09-27T10:39:09.764Z,2648.00
2018-09-27T10:40:09.775Z,2640.00
2018-09-27T10:41:09.890Z,2636.00
2018-09-27T10:42:09.789Z,2628.00
2018-09-27T10:43:09.796Z,2624.00
2018-09-27T10:44:09.821Z,2620.00
2018-09-27T10:45:09.811Z,2608.00
2018-09-27T10:46:09.817Z,2600.00
2018-09-27T10:47:09.828Z,2588.00
2018-09-27T10:48:09.833Z,2584.00
2018-09-27T10:49:09.858Z,2572.00
2018-09-27T10:50:09.848Z,2544.00
2018-09-27T10:51:09.877Z,2552.00
2018-09-27T10:52:09.869Z,2540.00
2018-09-27T10:53:09.873Z,2536.00
2018-09-27T10:54:09.950Z,2520.00
2018-09-27T10:55:09.943Z,2516.00
2018-09-27T10:56:09.907Z,2504.00
2018-09-27T10:57:09.965Z,2500.00
2018-09-27T10:58:09.907Z,2488.00
2018-09-27T10:59:09.938Z,2476.00
2018-09-27T11:00:09.924Z,2468.00
2018-09-27T11:01:09.931Z,2460.00
2018-09-27T11:02:10.053Z,2448.00
2018-09-27T11:03:09.991Z,2432.00
2018-09-27T11:04:09.971Z,2424.00
2018-09-27T11:05:09.958Z,2412.00
2018-09-27T11:06:09.967Z,2404.00
2018-09-27T11:07:09.997Z,2392.00
2018-09-27T11:08:09.977Z,2380.00
2018-09-27T11:09:09.984Z,2368.00
2018-09-27T11:10:10.074Z,2356.00
2018-09-27T11:11:10.077Z,2344.00
2018-09-27T11:12:10.017Z,2336.00
2018-09-27T11:13:10.015Z,2324.00
2018-09-27T11:14:10.023Z,2316.00
2018-09-27T11:15:10.028Z,2304.00
2018-09-27T11:16:10.035Z,2292.00
2018-09-27T11:17:10.041Z,2276.00
2018-09-27T11:18:10.064Z,2268.00
2018-09-27T11:19:10.058Z,2256.00
2018-09-27T11:20:10.102Z,2248.00
2018-09-27T11:21:10.069Z,2232.00
2018-09-27T11:22:10.209Z,2224.00
2018-09-27T11:23:10.082Z,2216.00
2018-09-27T11:24:10.092Z,2200.00
2018-09-27T11:25:10.096Z,2192.00
2018-09-27T11:26:10.109Z,2184.00
2018-09-27T11:27:10.114Z,2176.00
2018-09-27T11:28:12.751Z,2164.00
2018-09-27T11:29:10.200Z,2156.00
2018-09-27T11:30:10.144Z,2144.00
2018-09-27T11:31:10.143Z,2132.00
2018-09-27T11:32:10.152Z,2124.00
2018-09-27T11:33:10.213Z,2112.00
2018-09-27T11:34:10.225Z,2100.00
2018-09-27T11:35:10.168Z,2088.00
2018-09-27T11:36:10.250Z,2084.00
2018-09-27T11:37:10.209Z,2068.00
2018-09-27T11:38:10.210Z,2060.00
2018-09-27T11:39:10.198Z,2052.00
2018-09-27T11:40:10.218Z,2040.00
2018-09-27T11:41:10.216Z,2032.00
2018-09-27T11:42:10.221Z,2024.00
2018-09-27T11:43:10.228Z,2012.00
2018-09-27T11:44:10.248Z,2004.00
2018-09-27T11:45:10.246Z,1996.00
2018-09-27T11:46:10.271Z,1988.00
2018-09-27T11:47:10.256Z,1984.00
2018-09-27T11:48:10.265Z,1976.00
2018-09-27T11:49:10.403Z,1964.00
2018-09-27T11:50:10.339Z,1960.00
2018-09-27T11:51:10.292Z,1948.00
2018-09-27T11:52:10.290Z,1940.00
2018-09-27T11:53:10.297Z,1932.00
2018-09-27T11:54:10.306Z,1924.00
2018-09-27T11:55:10.377Z,1916.00
2018-09-27T11:56:10.381Z,1912.00
2018-09-27T11:57:10.327Z,1904.00
2018-09-27T11:58:10.354Z,1892.00
2018-09-27T11:59:12.461Z,1892.00
2018-09-27T12:00:10.411Z,1880.00
2018-09-27T12:02:32.084Z,1876.00
2018-09-27T12:03:31.985Z,1868.00
2018-09-27T12:05:25.088Z,1852.00
2018-09-27T12:06:24.678Z,1848.00
2018-09-27T12:08:18.606Z,1844.00
2018-09-27T12:09:19.253Z,1836.00
2018-09-27T12:11:16.645Z,1832.00
2018-09-27T12:12:13.902Z,1832.00
2018-09-27T12:14:09.297Z,1820.00
2018-09-27T12:15:08.484Z,1816.00
2018-09-27T12:17:04.714Z,1808.00
2018-09-27T12:17:58.770Z,1808.00
2018-09-27T12:19:55.290Z,1804.00
2018-09-27T12:20:52.083Z,1796.00
2018-09-27T12:22:49.894Z,1776.00
2018-09-27T12:23:48.697Z,1772.00
2018-09-27T12:25:51.821Z,1756.00
2018-09-27T12:26:39.059Z,1748.00
2018-09-27T12:28:32.084Z,1740.00
2018-09-27T12:29:32.642Z,1736.00
2018-09-27T12:31:25.048Z,1724.00
2018-09-27T12:32:24.964Z,1720.00
2018-09-27T12:34:18.256Z,1708.00
2018-09-27T12:35:18.254Z,1708.00
2018-09-27T12:37:12.224Z,1700.00
2018-09-27T12:38:11.585Z,1692.00
2018-09-27T12:40:05.298Z,1684.00
2018-09-27T12:41:05.124Z,1676.00
2018-09-27T12:42:58.201Z,1668.00
2018-09-27T12:43:58.094Z,1664.00
2018-09-27T12:45:50.959Z,1652.00
2018-09-27T12:46:51.074Z,1648.00
2018-09-27T12:48:43.812Z,1640.00
2018-09-27T12:49:43.725Z,1632.00
2018-09-27T12:51:36.825Z,1624.00
2018-09-27T12:52:36.720Z,1624.00
2018-09-27T12:54:29.492Z,1612.00
2018-09-27T12:55:29.393Z,1608.00
2018-09-27T12:57:22.510Z,1600.00
2018-09-27T12:58:22.901Z,1592.00
2018-09-27T12:59:23.620Z,1592.00
2018-09-27T13:00:22.803Z,1584.00
2018-09-27T13:01:22.251Z,1580.00
2018-09-27T13:02:22.287Z,1576.00
2018-09-27T13:03:22.193Z,1576.00
2018-09-27T13:04:22.196Z,1568.00
2018-09-27T13:05:22.422Z,1568.00
2018-09-27T13:06:22.278Z,1560.00
2018-09-27T13:07:22.223Z,1556.00
2018-09-27T13:08:22.274Z,1552.00
2018-09-27T13:09:22.763Z,1552.00
2018-09-27T13:10:22.271Z,1544.00
2018-09-27T13:11:22.240Z,1544.00
2018-09-27T13:12:22.279Z,1540.00
2018-09-27T13:13:22.489Z,1536.00
2018-09-27T13:14:22.294Z,1528.00
2018-09-27T13:15:22.324Z,1528.00
2018-09-27T13:16:22.373Z,1524.00
2018-09-27T13:17:22.303Z,1520.00
2018-09-27T13:18:22.287Z,1516.00
2018-09-27T13:19:22.315Z,1520.00
2018-09-27T13:20:22.421Z,1512.00
2018-09-27T13:21:22.352Z,1508.00
2018-09-27T13:22:22.310Z,1508.00
2018-09-27T13:23:22.395Z,1504.00
2018-09-27T13:24:22.378Z,1496.00
2018-09-27T13:25:22.358Z,1496.00
2018-09-27T13:26:22.344Z,1496.00